createdAt,value
2019-02-06T00:01:32.153Z,2.51
2019-02-06T00:04:03.975Z,2.45
2019-02-06T00:06:35.855Z,2.43
2019-02-06T00:09:15.559Z,2.41
2019-02-06T00:11:47.086Z,2.43
2019-02-06T00:14:18.679Z,2.38
2019-02-06T00:16:50.420Z,2.32
2019-02-06T00:19:23.636Z,2.27
2019-02-06T00:21:55.297Z,2.28
2019-02-06T00:24:26.775Z,2.31
2019-02-06T00:26:58.353Z,2.37
2019-02-06T00:29:30.038Z,2.45
2019-02-06T00:32:01.748Z,2.41
2019-02-06T00:34:33.245Z,2.38
2019-02-06T00:37:05.626Z,2.38
2019-02-06T00:39:37.092Z,2.43
2019-02-06T00:42:08.662Z,2.49
2019-02-06T00:44:40.437Z,2.57
2019-02-06T00:47:12.145Z,2.63
2019-02-06T00:49:43.729Z,2.65
2019-02-06T00:52:15.247Z,2.62
2019-02-06T00:54:46.838Z,2.62
2019-02-06T00:57:18.909Z,2.65
2019-02-06T00:59:50.560Z,2.69
2019-02-06T01:02:22.160Z,2.68
2019-02-06T01:04:53.745Z,2.65
2019-02-06T01:07:25.352Z,2.71
2019-02-06T01:09:57.053Z,2.58
2019-02-06T01:12:28.522Z,2.57
2019-02-06T01:15:00.151Z,2.50
2019-02-06T01:17:31.975Z,2.50
2019-02-06T01:20:03.587Z,2.53
2019-02-06T01:22:35.900Z,2.58
2019-02-06T01:25:08.912Z,2.59
2019-02-06T01:27:40.673Z,2.62
2019-02-06T01:30:17.413Z,2.58
2019-02-06T01:32:49.093Z,2.59
2019-02-06T01:35:21.636Z,2.48
2019-02-06T01:37:53.165Z,2.48
2019-02-06T01:40:28.985Z,2.45
2019-02-06T01:43:00.700Z,2.42
2019-02-06T01:45:33.893Z,2.44
2019-02-06T01:48:05.385Z,2.43
2019-02-06T01:50:42.365Z,2.45
2019-02-06T01:53:13.996Z,2.49
2019-02-06T01:55:46.006Z,2.56
2019-02-06T01:58:17.629Z,2.64
2019-02-06T02:00:49.731Z,2.61
2019-02-06T02:03:22.752Z,2.57
2019-02-06T02:06:01.693Z,2.55
2019-02-06T02:08:28.036Z,2.52
2019-02-06T02:10:59.595Z,2.48
2019-02-06T02:13:31.134Z,2.48
2019-02-06T02:16:02.689Z,2.44
2019-02-06T02:18:34.452Z,2.43
2019-02-06T02:21:06.306Z,2.52
2019-02-06T02:23:37.852Z,2.45
2019-02-06T02:26:09.534Z,2.45
2019-02-06T02:28:41.066Z,2.38
2019-02-06T02:31:13.128Z,2.40
2019-02-06T02:33:44.625Z,2.47
2019-02-06T02:36:16.666Z,2.42
2019-02-06T02:38:48.408Z,2.45
2019-02-06T02:41:20.075Z,2.48
2019-02-06T02:43:51.630Z,2.43
2019-02-06T02:46:23.405Z,2.43
2019-02-06T02:48:55.479Z,2.37
2019-02-06T02:51:27.109Z,2.38
2019-02-06T02:53:58.820Z,2.37
2019-02-06T02:56:30.377Z,2.33
2019-02-06T02:59:01.943Z,2.31
2019-02-06T03:01:50.904Z,2.31
2019-02-06T03:04:27.872Z,2.31
2019-02-06T03:06:59.725Z,2.34
2019-02-06T03:09:31.336Z,2.31
2019-02-06T03:12:02.801Z,2.33
2019-02-06T03:14:34.316Z,2.38
2019-02-06T03:17:06.127Z,2.38
2019-02-06T03:19:37.823Z,2.38
2019-02-06T03:22:09.329Z,2.38
2019-02-06T03:24:41.040Z,2.29
2019-02-06T03:27:12.556Z,2.31
2019-02-06T03:29:44.216Z,2.30
2019-02-06T03:32:15.806Z,2.26
2019-02-06T03:34:47.909Z,2.28
2019-02-06T03:37:19.440Z,2.22
2019-02-06T03:39:51.032Z,2.18
2019-02-06T03:42:22.672Z,2.22
2019-02-06T03:44:54.578Z,2.24
2019-02-06T03:47:26.173Z,2.17
2019-02-06T03:49:58.030Z,2.15
2019-02-06T03:52:29.554Z,2.21
2019-02-06T03:55:01.135Z,2.25
2019-02-06T03:57:32.885Z,2.27
2019-02-06T04:00:04.431Z,2.25
2019-02-06T04:02:36.236Z,2.27
2019-02-06T04:05:08.472Z,2.28
2019-02-06T04:07:40.121Z,2.29
2019-02-06T04:10:15.678Z,2.29
2019-02-06T04:12:47.635Z,2.23
2019-02-06T04:15:21.256Z,2.24
2019-02-06T04:17:54.541Z,2.30
2019-02-06T04:20:30.428Z,2.21
2019-02-06T04:23:01.892Z,2.20
2019-02-06T04:25:46.011Z,2.18
2019-02-06T04:28:15.860Z,2.26
2019-02-06T04:30:53.607Z,2.30
2019-02-06T04:33:25.099Z,2.22
2019-02-06T04:35:59.568Z,2.19
2019-02-06T04:38:31.171Z,2.17
2019-02-06T04:41:02.725Z,2.20
2019-02-06T04:43:34.935Z,2.19
2019-02-06T04:46:06.617Z,2.25
2019-02-06T04:48:38.556Z,2.32
2019-02-06T04:51:10.127Z,2.24
2019-02-06T04:53:41.655Z,2.25
2019-02-06T04:56:13.205Z,2.25
2019-02-06T04:58:44.672Z,2.20
2019-02-06T05:01:19.444Z,2.21
2019-02-06T05:03:51.079Z,2.17
2019-02-06T05:06:22.932Z,2.16
2019-02-06T05:08:54.646Z,2.19
2019-02-06T05:11:26.238Z,2.22
2019-02-06T05:13:58.285Z,2.22
2019-02-06T05:16:30.671Z,2.21
2019-02-06T05:19:02.935Z,2.26
2019-02-06T05:21:34.526Z,2.21
2019-02-06T05:24:07.944Z,2.19
2019-02-06T05:26:39.813Z,2.22
2019-02-06T05:29:12.897Z,2.21
2019-02-06T05:31:47.582Z,2.19
2019-02-06T05:34:20.156Z,2.23
2019-02-06T05:36:51.702Z,2.26
2019-02-06T05:39:23.286Z,2.28
2019-02-06T05:41:55.397Z,2.26
2019-02-06T05:44:26.856Z,2.17
2019-02-06T05:47:00.705Z,2.16
2019-02-06T05:49:32.218Z,2.10
2019-02-06T05:52:04.294Z,2.14
2019-02-06T05:54:35.885Z,2.17
2019-02-06T05:57:07.496Z,2.17
2019-02-06T05:59:39.115Z,2.20
2019-02-06T06:02:11.131Z,2.22
2019-02-06T06:04:43.106Z,2.17
2019-02-06T06:07:14.792Z,2.10
2019-02-06T06:09:46.882Z,2.10
2019-02-06T06:12:18.436Z,2.13
2019-02-06T06:14:49.922Z,2.07
2019-02-06T06:17:21.505Z,2.09
2019-02-06T06:19:53.037Z,2.10
2019-02-06T06:22:24.635Z,2.09
2019-02-06T06:24:57.458Z,2.11
2019-02-06T06:27:30.488Z,2.16
2019-02-06T06:30:02.087Z,2.13
2019-02-06T06:32:33.803Z,2.15
2019-02-06T06:35:05.995Z,2.11
2019-02-06T06:37:37.655Z,2.13
2019-02-06T06:40:12.195Z,2.10
2019-02-06T06:42:43.857Z,2.15
2019-02-06T06:45:17.664Z,2.15
2019-02-06T06:47:49.394Z,2.11
2019-02-06T06:50:23.042Z,2.15
2019-02-06T06:52:55.216Z,2.12
2019-02-06T06:55:29.285Z,2.14
2019-02-06T06:58:00.985Z,2.14
2019-02-06T07:00:39.216Z,2.10
2019-02-06T07:03:11.773Z,2.02
2019-02-06T07:05:45.532Z,2.07
2019-02-06T07:08:17.387Z,2.10
2019-02-06T07:10:53.366Z,2.11
2019-02-06T07:13:24.867Z,2.16
2019-02-06T07:16:04.936Z,2.15
2019-02-06T07:18:36.467Z,2.11
2019-02-06T07:21:08.069Z,2.18
2019-02-06T07:23:44.396Z,2.14
2019-02-06T07:26:17.465Z,2.11
2019-02-06T07:28:49.182Z,2.12
2019-02-06T07:31:23.749Z,2.13
2019-02-06T07:33:55.804Z,2.18
2019-02-06T07:36:27.532Z,2.15
2019-02-06T07:39:02.052Z,2.19
2019-02-06T07:41:34.873Z,2.11
2019-02-06T07:44:07.477Z,2.16
2019-02-06T07:46:40.844Z,2.12
2019-02-06T07:49:13.164Z,2.16
2019-02-06T07:51:50.523Z,2.15
2019-02-06T07:54:22.206Z,2.24
2019-02-06T07:56:54.203Z,2.27
2019-02-06T07:59:28.737Z,2.29
2019-02-06T08:02:00.287Z,2.24
2019-02-06T08:04:33.297Z,2.24
2019-02-06T08:07:06.490Z,2.24
2019-02-06T08:09:38.145Z,2.26
2019-02-06T08:12:10.421Z,2.28
2019-02-06T08:14:41.855Z,2.24
2019-02-06T08:17:16.008Z,2.24
2019-02-06T08:19:49.154Z,2.27
2019-02-06T08:22:24.954Z,2.33
2019-02-06T08:24:56.585Z,2.33
2019-02-06T08:27:28.061Z,2.35
2019-02-06T08:29:59.592Z,2.43
2019-02-06T08:32:32.721Z,2.41
2019-02-06T08:35:07.903Z,2.37
2019-02-06T08:37:44.803Z,2.35
2019-02-06T08:40:16.884Z,2.32
2019-02-06T08:42:48.435Z,2.44
2019-02-06T08:45:24.617Z,2.55
2019-02-06T08:47:56.362Z,2.53
2019-02-06T08:50:30.045Z,2.51
2019-02-06T08:53:04.256Z,2.49
2019-02-06T08:55:37.543Z,2.43
2019-02-06T08:58:09.199Z,2.50
2019-02-06T09:00:48.790Z,2.52
2019-02-06T09:03:20.563Z,2.49
2019-02-06T09:05:53.424Z,2.47
2019-02-06T09:08:25.321Z,2.47
2019-02-06T09:10:56.879Z,2.42
2019-02-06T09:13:30.244Z,2.43
2019-02-06T09:16:01.833Z,2.52
2019-02-06T09:18:40.684Z,2.56
2019-02-06T09:21:13.591Z,2.52
2019-02-06T09:23:45.230Z,2.53
2019-02-06T09:26:19.502Z,2.44
2019-02-06T09:28:51.303Z,2.55
2019-02-06T09:31:22.776Z,2.55
2019-02-06T09:33:55.699Z,2.53
2019-02-06T09:36:27.725Z,2.57
2019-02-06T09:39:11.297Z,2.58
2019-02-06T09:41:37.045Z,2.61
2019-02-06T09:44:11.729Z,2.63
2019-02-06T09:46:44.662Z,2.68
2019-02-06T09:49:19.523Z,2.71
2019-02-06T09:51:53.969Z,2.76
2019-02-06T09:54:26.351Z,2.69
2019-02-06T09:56:58.052Z,2.80
2019-02-06T09:59:31.832Z,2.83
2019-02-06T10:02:03.457Z,2.81
2019-02-06T10:04:37.458Z,2.84
2019-02-06T10:07:08.944Z,2.66
2019-02-06T10:09:42.402Z,2.78
2019-02-06T10:12:14.387Z,2.76
2019-02-06T10:14:48.353Z,2.70
2019-02-06T10:17:19.961Z,2.72
2019-02-06T10:19:51.725Z,2.67
2019-02-06T10:22:25.873Z,2.63
2019-02-06T10:25:00.347Z,2.65
2019-02-06T10:27:33.442Z,2.67
2019-02-06T10:30:08.397Z,2.55
2019-02-06T10:32:39.969Z,2.55
2019-02-06T10:35:11.664Z,2.46
2019-02-06T10:37:43.272Z,2.48
2019-02-06T10:40:16.092Z,2.48
2019-02-06T10:42:47.802Z,2.50
2019-02-06T10:45:22.166Z,2.43
2019-02-06T10:47:55.413Z,2.42
2019-02-06T10:50:31.085Z,2.38
2019-02-06T10:53:04.703Z,2.41
2019-02-06T10:55:36.518Z,2.45
2019-02-06T10:58:08.515Z,2.48
2019-02-06T11:00:52.048Z,2.44
2019-02-06T11:03:23.714Z,2.38
2019-02-06T11:05:55.169Z,2.35
2019-02-06T11:08:26.881Z,2.38
2019-02-06T11:11:04.643Z,2.43
2019-02-06T11:13:35.316Z,2.33
2019-02-06T11:16:07.010Z,2.32
2019-02-06T11:18:38.565Z,2.38
2019-02-06T11:21:10.182Z,2.33
2019-02-06T11:23:42.395Z,2.25
2019-02-06T11:26:16.532Z,2.29
2019-02-06T11:28:48.147Z,2.19
2019-02-06T11:31:22.453Z,2.25
2019-02-06T11:33:54.024Z,2.33
2019-02-06T11:36:25.592Z,2.30
2019-02-06T11:38:57.065Z,2.34
2019-02-06T11:41:28.740Z,2.38
2019-02-06T11:44:00.172Z,2.18
2019-02-06T11:46:34.324Z,2.32
2019-02-06T11:49:07.102Z,2.42
2019-02-06T11:51:38.852Z,2.43
2019-02-06T11:54:10.602Z,2.45
2019-02-06T11:56:42.284Z,2.45
2019-02-06T11:59:13.922Z,2.44
2019-02-06T12:01:51.443Z,2.44
2019-02-06T12:04:23.013Z,2.41
2019-02-06T12:06:54.625Z,2.38
2019-02-06T12:09:26.042Z,2.35
2019-02-06T12:11:58.354Z,2.38
2019-02-06T12:14:29.973Z,2.36
2019-02-06T12:17:01.653Z,2.33
2019-02-06T12:19:33.232Z,2.34
2019-02-06T12:22:05.521Z,2.35
2019-02-06T12:24:37.062Z,2.49
2019-02-06T12:27:08.635Z,2.44
2019-02-06T12:29:40.241Z,2.41
2019-02-06T12:32:11.958Z,2.34
2019-02-06T12:34:43.633Z,2.38
2019-02-06T12:37:16.993Z,2.39
2019-02-06T12:39:50.892Z,2.45
2019-02-06T12:42:24.007Z,2.47
2019-02-06T12:44:58.971Z,2.44
2019-02-06T12:47:29.501Z,2.43
2019-02-06T12:50:01.042Z,2.32
2019-02-06T12:52:33.144Z,2.30
2019-02-06T12:55:06.002Z,2.30
2019-02-06T12:57:37.674Z,2.31
2019-02-06T13:00:14.273Z,2.34
2019-02-06T13:02:46.872Z,2.38
2019-02-06T13:05:18.869Z,2.45
2019-02-06T13:07:52.092Z,2.41
2019-02-06T13:10:33.424Z,2.43
2019-02-06T13:12:57.198Z,2.47
2019-02-06T13:15:34.108Z,2.50
2019-02-06T13:20:58.984Z,2.46
2019-02-06T13:23:30.497Z,2.48
2019-02-06T13:26:05.694Z,2.43
2019-02-06T13:28:37.224Z,2.42
2019-02-06T13:31:08.893Z,2.48
2019-02-06T13:33:41.694Z,2.52
2019-02-06T13:36:14.329Z,2.42
2019-02-06T13:38:45.940Z,2.45
2019-02-06T13:41:17.387Z,2.42
2019-02-06T13:43:48.940Z,2.42
2019-02-06T13:46:20.539Z,2.39
2019-02-06T13:48:52.419Z,2.44
2019-02-06T13:51:24.272Z,2.41
2019-02-06T13:53:55.952Z,2.44
2019-02-06T13:56:28.584Z,2.47
2019-02-06T13:59:00.571Z,2.52
2019-02-06T14:01:32.232Z,2.46
2019-02-06T14:04:07.097Z,2.55
2019-02-06T14:06:38.691Z,2.44
2019-02-06T14:09:22.820Z,2.48
2019-02-06T14:11:48.716Z,2.46
2019-02-06T14:14:21.423Z,2.46
2019-02-06T14:16:54.344Z,2.43
2019-02-06T14:19:26.109Z,2.44
2019-02-06T14:22:01.943Z,2.41
2019-02-06T14:24:41.492Z,2.38
2019-02-06T14:27:59.511Z,2.44
2019-02-06T14:31:12.906Z,2.46
2019-02-06T14:34:24.398Z,2.40
2019-02-06T14:37:31.041Z,2.44
2019-02-06T14:40:54.826Z,2.33
2019-02-06T14:43:53.053Z,2.42
2019-02-06T14:47:11.570Z,2.40
2019-02-06T14:50:11.293Z,2.41
2019-02-06T14:53:12.663Z,2.50
2019-02-06T14:56:27.239Z,2.40
2019-02-06T14:59:34.879Z,2.43
2019-02-06T15:03:07.511Z,2.47
2019-02-06T15:06:23.479Z,2.43
2019-02-06T15:09:34.120Z,2.47
2019-02-06T15:12:14.839Z,2.48
2019-02-06T15:15:39.765Z,2.54
2019-02-06T15:18:40.126Z,2.55
2019-02-06T15:21:57.301Z,2.56
2019-02-06T15:25:06.092Z,2.61
2019-02-06T15:28:28.119Z,2.53
2019-02-06T15:31:51.732Z,2.54
2019-02-06T15:34:53.274Z,2.58
2019-02-06T15:37:46.714Z,2.50
2019-02-06T15:40:48.499Z,2.48
2019-02-06T15:43:51.312Z,2.50
2019-02-06T15:47:05.229Z,2.51
2019-02-06T15:50:07.713Z,2.40
2019-02-06T15:53:19.786Z,2.40
2019-02-06T15:56:22.263Z,2.41
2019-02-06T15:59:35.522Z,2.38
2019-02-06T16:02:47.360Z,2.43
2019-02-06T16:05:48.120Z,2.46
2019-02-06T16:08:55.660Z,2.50
2019-02-06T16:11:42.743Z,2.49
2019-02-06T16:14:59.637Z,2.47
2019-02-06T16:18:23.377Z,2.49
2019-02-06T16:21:28.637Z,2.54
2019-02-06T16:24:20.682Z,2.56
2019-02-06T16:27:15.343Z,2.53
2019-02-06T16:30:26.853Z,2.53
2019-02-06T16:33:43.791Z,2.45
2019-02-06T16:36:55.100Z,2.57
2019-02-06T16:39:56.489Z,2.53
2019-02-06T16:42:40.911Z,2.48
2019-02-06T16:45:53.922Z,2.55
2019-02-06T16:48:53.403Z,2.53
2019-02-06T16:51:52.334Z,2.59
2019-02-06T16:54:49.941Z,2.66
2019-02-06T16:58:08.898Z,2.66
2019-02-06T17:01:13.342Z,2.66
2019-02-06T17:04:02.489Z,2.56
2019-02-06T17:07:35.462Z,2.58
2019-02-06T17:10:47.881Z,2.50
2019-02-06T17:13:53.835Z,2.43
2019-02-06T17:17:00.358Z,2.40
2019-02-06T17:20:04.629Z,2.43
2019-02-06T17:23:31.289Z,2.42
2019-02-06T17:26:24.012Z,2.33
2019-02-06T17:29:07.971Z,2.29
2019-02-06T17:32:14.481Z,2.27
2019-02-06T17:35:07.083Z,2.31
2019-02-06T17:38:21.605Z,2.23
2019-02-06T17:41:24.025Z,2.20
2019-02-06T17:44:36.314Z,2.19
2019-02-06T17:47:33.042Z,2.16
2019-02-06T17:50:34.639Z,2.21
2019-02-06T17:53:24.377Z,2.17
2019-02-06T17:55:56.172Z,2.20
2019-02-06T17:58:29.753Z,2.17
2019-02-06T18:01:08.960Z,2.20
2019-02-06T18:03:44.429Z,2.21
2019-02-06T18:06:16.793Z,2.20
2019-02-06T18:08:56.376Z,2.18
2019-02-06T18:11:21.844Z,2.19
2019-02-06T18:13:53.877Z,2.18
2019-02-06T18:16:26.331Z,2.20
2019-02-06T18:18:57.982Z,2.20
2019-02-06T18:21:29.655Z,2.19
2019-02-06T18:24:01.209Z,2.18
2019-02-06T18:26:33.262Z,2.25
2019-02-06T18:29:06.711Z,2.23
2019-02-06T18:31:38.213Z,2.21
2019-02-06T18:34:10.881Z,2.26
2019-02-06T18:36:42.694Z,2.25
2019-02-06T18:39:17.621Z,2.21
2019-02-06T18:41:49.423Z,2.30
2019-02-06T18:44:21.134Z,2.26
2019-02-06T18:46:55.309Z,2.29
2019-02-06T18:49:26.998Z,2.29
2019-02-06T18:51:58.742Z,2.29
2019-02-06T18:54:30.557Z,2.25
2019-02-06T18:57:02.451Z,2.32
2019-02-06T18:59:34.123Z,2.29
2019-02-06T19:02:05.976Z,2.29
2019-02-06T19:04:37.662Z,2.31
2019-02-06T19:07:09.392Z,2.29
2019-02-06T19:09:41.738Z,2.28
2019-02-06T19:12:13.233Z,2.33
2019-02-06T19:14:44.783Z,2.30
2019-02-06T19:17:16.633Z,2.35
2019-02-06T19:19:48.348Z,2.31
2019-02-06T19:22:19.980Z,2.32
2019-02-06T19:24:51.847Z,2.40
2019-02-06T19:27:23.683Z,2.31
2019-02-06T19:29:55.351Z,2.30
2019-02-06T19:32:27.099Z,2.28
2019-02-06T19:34:58.737Z,2.24
2019-02-06T19:37:30.308Z,2.25
2019-02-06T19:40:01.862Z,2.29
2019-02-06T19:42:33.543Z,2.30
2019-02-06T19:45:07.499Z,2.29
2019-02-06T19:47:39.210Z,2.32
2019-02-06T19:50:15.560Z,2.25
2019-02-06T19:52:47.136Z,2.30
2019-02-06T19:55:19.292Z,2.29
2019-02-06T19:57:51.338Z,2.24
2019-02-06T20:00:26.971Z,2.25
2019-02-06T20:02:58.998Z,2.33
2019-02-06T20:05:33.049Z,2.28
2019-02-06T20:08:05.181Z,2.24
2019-02-06T20:10:38.999Z,2.30
2019-02-06T20:13:14.497Z,2.25
2019-02-06T20:15:45.532Z,2.31
2019-02-06T20:18:17.633Z,2.29
2019-02-06T20:20:49.242Z,2.32
2019-02-06T20:23:21.016Z,2.38
2019-02-06T20:25:54.842Z,2.30
2019-02-06T20:28:26.484Z,2.20
2019-02-06T20:30:58.343Z,2.31
2019-02-06T20:33:30.082Z,2.30
2019-02-06T20:36:01.605Z,2.24
2019-02-06T20:38:35.134Z,2.22
2019-02-06T20:41:06.922Z,2.18
2019-02-06T20:43:38.587Z,2.16
2019-02-06T20:46:10.144Z,2.17
2019-02-06T20:48:41.755Z,2.19
2019-02-06T20:51:13.449Z,2.17
2019-02-06T20:53:45.177Z,2.24
2019-02-06T20:56:18.311Z,2.24
2019-02-06T20:58:50.569Z,2.19
2019-02-06T21:01:22.222Z,2.19
2019-02-06T21:03:54.067Z,2.19
2019-02-06T21:06:25.546Z,2.20
2019-02-06T21:08:57.205Z,2.15
2019-02-06T21:11:28.945Z,2.17
2019-02-06T21:14:00.527Z,2.20
2019-02-06T21:16:32.077Z,2.26
2019-02-06T21:19:03.833Z,2.20
2019-02-06T21:21:35.362Z,2.23
2019-02-06T21:24:09.432Z,2.19
2019-02-06T21:26:41.038Z,2.23
2019-02-06T21:29:12.701Z,2.19
2019-02-06T21:31:45.453Z,2.17
2019-02-06T21:34:17.133Z,2.23
2019-02-06T21:36:49.988Z,2.21
2019-02-06T21:39:21.575Z,2.23
2019-02-06T21:41:53.226Z,2.18
2019-02-06T21:44:24.715Z,2.22
2019-02-06T21:46:56.283Z,2.20
2019-02-06T21:49:28.015Z,2.15
2019-02-06T21:51:59.733Z,2.09
2019-02-06T21:54:31.513Z,2.04
2019-02-06T21:57:04.311Z,2.02
2019-02-06T21:59:35.933Z,2.01
2019-02-06T22:02:08.084Z,1.89
2019-02-06T22:04:39.740Z,1.91
2019-02-06T22:07:11.261Z,1.84
2019-02-06T22:09:43.012Z,1.85
2019-02-06T22:12:14.618Z,1.95
2019-02-06T22:14:46.627Z,1.91
2019-02-06T22:17:18.257Z,1.88
2019-02-06T22:19:49.736Z,1.90
2019-02-06T22:22:21.298Z,1.80
2019-02-06T22:24:53.129Z,1.80
2019-02-06T22:27:25.067Z,1.78
2019-02-06T22:29:56.616Z,1.82
2019-02-06T22:32:28.247Z,1.77
2019-02-06T22:34:59.797Z,1.76
2019-02-06T22:37:31.428Z,1.78
2019-02-06T22:40:03.192Z,1.69
2019-02-06T22:42:34.715Z,1.71
2019-02-06T22:45:07.915Z,1.61
2019-02-06T22:47:41.219Z,1.67
2019-02-06T22:50:14.263Z,1.65
2019-02-06T22:52:45.717Z,1.54
2019-02-06T22:55:18.085Z,1.50
2019-02-06T22:57:49.690Z,1.52
2019-02-06T23:00:47.712Z,1.55
2019-02-06T23:03:30.406Z,1.53
2019-02-06T23:06:01.950Z,1.43
2019-02-06T23:08:33.512Z,1.43
2019-02-06T23:11:05.966Z,1.46
2019-02-06T23:13:37.640Z,1.43
2019-02-06T23:16:09.279Z,1.40
2019-02-06T23:18:40.797Z,1.31
2019-02-06T23:21:12.446Z,1.28
2019-02-06T23:23:44.180Z,1.21
2019-02-06T23:26:15.910Z,1.15
2019-02-06T23:28:47.630Z,1.21
2019-02-06T23:31:19.220Z,1.20
2019-02-06T23:33:50.979Z,1.15
2019-02-06T23:36:22.640Z,1.23
2019-02-06T23:38:54.399Z,1.23
2019-02-06T23:41:26.000Z,1.15
2019-02-06T23:43:57.514Z,1.08
2019-02-06T23:46:29.049Z,1.13
2019-02-06T23:49:00.693Z,1.07
2019-02-06T23:51:32.357Z,1.06
2019-02-06T23:54:03.941Z,1.04
2019-02-06T23:56:35.464Z,1.04
2019-02-06T23:59:07.057Z,1.02
